sensor_id;sensor_type;location;lat;lon;timestamp;temperature;humidity
14798;DHT22;7490;63.708;20.368;2023-03-24T00:02:07;-1.30;77.40
14798;DHT22;7490;63.708;20.368;2023-03-24T00:04:33;-1.40;77.60
14798;DHT22;7490;63.708;20.368;2023-03-24T00:07:00;-1.40;77.70
14798;DHT22;7490;63.708;20.368;2023-03-24T00:09:27;-1.40;77.80
14798;DHT22;7490;63.708;20.368;2023-03-24T00:11:55;-1.50;78.00
14798;DHT22;7490;63.708;20.368;2023-03-24T00:14:21;-1.50;78.10
14798;DHT22;7490;63.708;20.368;2023-03-24T00:16:48;-1.50;78.20
14798;DHT22;7490;63.708;20.368;2023-03-24T00:19:15;-1.50;78.20
14798;DHT22;7490;63.708;20.368;2023-03-24T00:21:42;-1.50;78.20
14798;DHT22;7490;63.708;20.368;2023-03-24T00:24:09;-1.50;78.30
14798;DHT22;7490;63.708;20.368;2023-03-24T00:26:37;-1.50;78.60
14798;DHT22;7490;63.708;20.368;2023-03-24T00:29:05;-1.50;78.60
14798;DHT22;7490;63.708;20.368;2023-03-24T00:31:31;-1.50;78.70
14798;DHT22;7490;63.708;20.368;2023-03-24T00:33:56;-1.50;78.70
14798;DHT22;7490;63.708;20.368;2023-03-24T00:36:25;-1.50;78.80
14798;DHT22;7490;63.708;20.368;2023-03-24T00:38:54;-1.50;78.90
14798;DHT22;7490;63.708;20.368;2023-03-24T00:41:20;-1.50;79.80
14798;DHT22;7490;63.708;20.368;2023-03-24T00:43:49;-1.50;79.00
14798;DHT22;7490;63.708;20.368;2023-03-24T00:46:16;-1.40;79.00
14798;DHT22;7490;63.708;20.368;2023-03-24T00:49:05;-1.40;79.00
14798;DHT22;7490;63.708;20.368;2023-03-24T00:51:41;-1.40;79.00
14798;DHT22;7490;63.708;20.368;2023-03-24T00:54:10;-1.40;79.10
14798;DHT22;7490;63.708;20.368;2023-03-24T00:56:38;-1.50;79.10
14798;DHT22;7490;63.708;20.368;2023-03-24T00:59:05;-1.50;79.20
14798;DHT22;7490;63.708;20.368;2023-03-24T01:01:33;-1.40;79.30
14798;DHT22;7490;63.708;20.368;2023-03-24T01:04:00;-1.40;79.30
14798;DHT22;7490;63.708;20.368;2023-03-24T01:06:27;-1.40;79.40
14798;DHT22;7490;63.708;20.368;2023-03-24T01:08:53;-1.30;79.40
14798;DHT22;7490;63.708;20.368;2023-03-24T01:11:21;-1.30;79.40
14798;DHT22;7490;63.708;20.368;2023-03-24T01:13:48;-1.30;79.50
14798;DHT22;7490;63.708;20.368;2023-03-24T01:16:14;-1.30;79.60
14798;DHT22;7490;63.708;20.368;2023-03-24T01:18:40;-1.30;79.70
14798;DHT22;7490;63.708;20.368;2023-03-24T01:21:08;-1.20;79.80
14798;DHT22;7490;63.708;20.368;2023-03-24T01:23:35;-1.20;79.80
14798;DHT22;7490;63.708;20.368;2023-03-24T01:26:08;-1.20;79.80
14798;DHT22;7490;63.708;20.368;2023-03-24T01:28:34;-1.20;79.80
14798;DHT22;7490;63.708;20.368;2023-03-24T01:31:06;-1.10;79.90
14798;DHT22;7490;63.708;20.368;2023-03-24T01:33:31;-1.10;79.90
14798;DHT22;7490;63.708;20.368;2023-03-24T01:35:57;-1.10;79.90
14798;DHT22;7490;63.708;20.368;2023-03-24T01:38:23;-1.20;79.90
14798;DHT22;7490;63.708;20.368;2023-03-24T01:40:48;-1.10;80.20
14798;DHT22;7490;63.708;20.368;2023-03-24T01:43:22;-1.10;80.20
14798;DHT22;7490;63.708;20.368;2023-03-24T01:51:23;-1.10;80.40
14798;DHT22;7490;63.708;20.368;2023-03-24T01:54:10;-1.10;80.40
14798;DHT22;7490;63.708;20.368;2023-03-24T01:56:41;-1.10;80.50
14798;DHT22;7490;63.708;20.368;2023-03-24T01:59:11;-1.20;80.40
14798;DHT22;7490;63.708;20.368;2023-03-24T02:01:38;-1.20;80.50
14798;DHT22;7490;63.708;20.368;2023-03-24T02:04:05;-1.20;80.50
14798;DHT22;7490;63.708;20.368;2023-03-24T02:06:33;-1.20;80.70
14798;DHT22;7490;63.708;20.368;2023-03-24T02:09:00;-1.10;80.90
14798;DHT22;7490;63.708;20.368;2023-03-24T02:11:29;-1.10;80.90
14798;DHT22;7490;63.708;20.368;2023-03-24T02:13:55;-1.10;80.90
14798;DHT22;7490;63.708;20.368;2023-03-24T02:19:52;-1.10;81.00
14798;DHT22;7490;63.708;20.368;2023-03-24T02:33:34;-1.20;81.20
14798;DHT22;7490;63.708;20.368;2023-03-24T02:44:39;-1.10;81.50
14798;DHT22;7490;63.708;20.368;2023-03-24T02:47:19;-1.10;81.50
14798;DHT22;7490;63.708;20.368;2023-03-24T02:53:06;-1.10;81.60
14798;DHT22;7490;63.708;20.368;2023-03-24T02:55:42;-1.40;81.60
14798;DHT22;7490;63.708;20.368;2023-03-24T02:58:37;-1.10;81.80
14798;DHT22;7490;63.708;20.368;2023-03-24T03:01:05;-1.00;81.80
14798;DHT22;7490;63.708;20.368;2023-03-24T03:03:49;-1.00;81.70
14798;DHT22;7490;63.708;20.368;2023-03-24T03:06:28;-1.00;81.70
14798;DHT22;7490;63.708;20.368;2023-03-24T03:08:58;-0.90;81.80
14798;DHT22;7490;63.708;20.368;2023-03-24T03:11:25;-0.90;81.80
14798;DHT22;7490;63.708;20.368;2023-03-24T03:14:00;-0.90;81.70
14798;DHT22;7490;63.708;20.368;2023-03-24T03:16:50;-0.90;81.80
14798;DHT22;7490;63.708;20.368;2023-03-24T03:19:21;-0.80;82.00
14798;DHT22;7490;63.708;20.368;2023-03-24T03:21:49;-0.80;81.90
14798;DHT22;7490;63.708;20.368;2023-03-24T03:24:17;-0.80;82.00
14798;DHT22;7490;63.708;20.368;2023-03-24T03:26:46;-0.80;82.00
14798;DHT22;7490;63.708;20.368;2023-03-24T03:29:20;-0.70;82.10
14798;DHT22;7490;63.708;20.368;2023-03-24T03:31:52;-0.70;82.20
14798;DHT22;7490;63.708;20.368;2023-03-24T03:34:59;-0.70;82.20
14798;DHT22;7490;63.708;20.368;2023-03-24T03:37:39;-0.40;82.40
14798;DHT22;7490;63.708;20.368;2023-03-24T03:40:23;-0.60;82.30
14798;DHT22;7490;63.708;20.368;2023-03-24T03:42:49;-0.60;82.30
14798;DHT22;7490;63.708;20.368;2023-03-24T03:45:15;-0.60;82.20
14798;DHT22;7490;63.708;20.368;2023-03-24T03:47:42;-0.60;83.20
14798;DHT22;7490;63.708;20.368;2023-03-24T03:50:08;-0.60;82.60
14798;DHT22;7490;63.708;20.368;2023-03-24T03:52:38;-0.60;82.60
14798;DHT22;7490;63.708;20.368;2023-03-24T03:55:06;-0.50;82.70
14798;DHT22;7490;63.708;20.368;2023-03-24T03:57:34;-0.60;82.70
14798;DHT22;7490;63.708;20.368;2023-03-24T04:00:02;-0.50;82.70
14798;DHT22;7490;63.708;20.368;2023-03-24T04:03:02;-0.50;82.80
14798;DHT22;7490;63.708;20.368;2023-03-24T04:08:49;-0.50;82.90
14798;DHT22;7490;63.708;20.368;2023-03-24T04:14:25;-0.40;82.90
14798;DHT22;7490;63.708;20.368;2023-03-24T04:17:28;-0.20;83.20
14798;DHT22;7490;63.708;20.368;2023-03-24T04:23:08;-0.40;83.00
14798;DHT22;7490;63.708;20.368;2023-03-24T04:36:26;-0.30;83.30
14798;DHT22;7490;63.708;20.368;2023-03-24T04:38:55;-0.20;83.30
14798;DHT22;7490;63.708;20.368;2023-03-24T04:41:24;-0.20;83.30
14798;DHT22;7490;63.708;20.368;2023-03-24T04:43:51;-0.30;83.30
14798;DHT22;7490;63.708;20.368;2023-03-24T04:46:19;-0.20;83.40
14798;DHT22;7490;63.708;20.368;2023-03-24T04:48:46;-0.20;83.50
14798;DHT22;7490;63.708;20.368;2023-03-24T04:51:16;-0.10;83.60
14798;DHT22;7490;63.708;20.368;2023-03-24T04:53:43;-0.10;83.60
14798;DHT22;7490;63.708;20.368;2023-03-24T04:56:42;-0.10;83.70
14798;DHT22;7490;63.708;20.368;2023-03-24T04:59:10;-0.10;83.60
14798;DHT22;7490;63.708;20.368;2023-03-24T05:01:37;0.00;83.70
14798;DHT22;7490;63.708;20.368;2023-03-24T05:04:03;0.00;83.80
14798;DHT22;7490;63.708;20.368;2023-03-24T05:06:29;0.00;83.90
14798;DHT22;7490;63.708;20.368;2023-03-24T05:08:56;0.00;84.00
14798;DHT22;7490;63.708;20.368;2023-03-24T05:11:27;0.10;84.10
14798;DHT22;7490;63.708;20.368;2023-03-24T05:13:53;0.10;84.10
14798;DHT22;7490;63.708;20.368;2023-03-24T05:16:19;0.20;84.00
14798;DHT22;7490;63.708;20.368;2023-03-24T05:18:45;0.20;84.00
14798;DHT22;7490;63.708;20.368;2023-03-24T05:21:11;0.30;84.10
14798;DHT22;7490;63.708;20.368;2023-03-24T05:23:37;0.30;84.10
14798;DHT22;7490;63.708;20.368;2023-03-24T05:26:03;0.30;84.00
14798;DHT22;7490;63.708;20.368;2023-03-24T05:28:29;0.30;84.10
14798;DHT22;7490;63.708;20.368;2023-03-24T05:30:55;0.40;84.30
14798;DHT22;7490;63.708;20.368;2023-03-24T05:33:21;0.40;84.30
14798;DHT22;7490;63.708;20.368;2023-03-24T05:35:47;0.50;84.40
14798;DHT22;7490;63.708;20.368;2023-03-24T05:38:13;0.60;84.30
14798;DHT22;7490;63.708;20.368;2023-03-24T05:40:38;0.70;84.30
14798;DHT22;7490;63.708;20.368;2023-03-24T05:43:04;0.70;84.40
14798;DHT22;7490;63.708;20.368;2023-03-24T05:45:32;0.80;84.30
14798;DHT22;7490;63.708;20.368;2023-03-24T05:47:58;0.80;84.20
14798;DHT22;7490;63.708;20.368;2023-03-24T05:50:24;0.80;84.10
14798;DHT22;7490;63.708;20.368;2023-03-24T05:52:50;0.80;84.20
14798;DHT22;7490;63.708;20.368;2023-03-24T05:55:17;0.90;84.20
14798;DHT22;7490;63.708;20.368;2023-03-24T05:57:44;0.90;84.30
14798;DHT22;7490;63.708;20.368;2023-03-24T06:00:10;0.90;84.60
14798;DHT22;7490;63.708;20.368;2023-03-24T06:02:42;1.00;84.70
14798;DHT22;7490;63.708;20.368;2023-03-24T06:05:08;1.10;84.80
14798;DHT22;7490;63.708;20.368;2023-03-24T06:07:35;1.20;84.80
14798;DHT22;7490;63.708;20.368;2023-03-24T06:10:00;1.30;85.10
14798;DHT22;7490;63.708;20.368;2023-03-24T06:12:29;1.50;85.20
14798;DHT22;7490;63.708;20.368;2023-03-24T06:14:59;1.50;85.00
14798;DHT22;7490;63.708;20.368;2023-03-24T06:17:27;1.60;84.60
14798;DHT22;7490;63.708;20.368;2023-03-24T06:19:54;1.60;84.40
14798;DHT22;7490;63.708;20.368;2023-03-24T06:22:27;1.60;84.10
14798;DHT22;7490;63.708;20.368;2023-03-24T06:24:53;1.60;83.90
14798;DHT22;7490;63.708;20.368;2023-03-24T06:27:21;1.60;84.00
14798;DHT22;7490;63.708;20.368;2023-03-24T06:29:51;1.70;84.00
14798;DHT22;7490;63.708;20.368;2023-03-24T06:32:19;1.60;84.00
14798;DHT22;7490;63.708;20.368;2023-03-24T06:34:45;1.60;84.10
14798;DHT22;7490;63.708;20.368;2023-03-24T06:37:11;1.60;84.00
14798;DHT22;7490;63.708;20.368;2023-03-24T06:39:36;1.60;84.00
14798;DHT22;7490;63.708;20.368;2023-03-24T06:42:03;1.80;84.30
14798;DHT22;7490;63.708;20.368;2023-03-24T06:44:29;1.70;84.10
14798;DHT22;7490;63.708;20.368;2023-03-24T06:46:55;1.70;84.10
14798;DHT22;7490;63.708;20.368;2023-03-24T06:49:20;1.70;84.20
14798;DHT22;7490;63.708;20.368;2023-03-24T06:51:46;1.70;84.30
14798;DHT22;7490;63.708;20.368;2023-03-24T06:54:12;1.70;84.10
14798;DHT22;7490;63.708;20.368;2023-03-24T06:56:37;1.70;84.00
14798;DHT22;7490;63.708;20.368;2023-03-24T06:59:03;1.80;84.10
14798;DHT22;7490;63.708;20.368;2023-03-24T07:01:29;1.80;84.80
14798;DHT22;7490;63.708;20.368;2023-03-24T07:03:55;1.80;84.10
14798;DHT22;7490;63.708;20.368;2023-03-24T07:06:21;1.90;84.00
14798;DHT22;7490;63.708;20.368;2023-03-24T07:08:48;1.90;84.10
14798;DHT22;7490;63.708;20.368;2023-03-24T07:11:13;2.00;84.20
14798;DHT22;7490;63.708;20.368;2023-03-24T07:13:40;2.00;84.20
14798;DHT22;7490;63.708;20.368;2023-03-24T07:16:06;2.10;84.10
14798;DHT22;7490;63.708;20.368;2023-03-24T07:18:32;2.10;83.80
14798;DHT22;7490;63.708;20.368;2023-03-24T07:20:58;2.20;84.00
14798;DHT22;7490;63.708;20.368;2023-03-24T07:23:23;2.20;83.90
14798;DHT22;7490;63.708;20.368;2023-03-24T07:25:50;2.30;83.70
14798;DHT22;7490;63.708;20.368;2023-03-24T07:28:15;2.30;83.50
14798;DHT22;7490;63.708;20.368;2023-03-24T07:30:41;2.30;83.60
14798;DHT22;7490;63.708;20.368;2023-03-24T07:33:07;2.40;84.00
14798;DHT22;7490;63.708;20.368;2023-03-24T07:35:36;2.50;83.70
14798;DHT22;7490;63.708;20.368;2023-03-24T07:38:02;2.50;83.70
14798;DHT22;7490;63.708;20.368;2023-03-24T07:40:28;2.60;83.80
14798;DHT22;7490;63.708;20.368;2023-03-24T07:42:54;2.60;83.50
14798;DHT22;7490;63.708;20.368;2023-03-24T07:45:20;2.60;83.10
14798;DHT22;7490;63.708;20.368;2023-03-24T07:47:46;2.50;82.90
14798;DHT22;7490;63.708;20.368;2023-03-24T07:50:12;2.40;82.90
14798;DHT22;7490;63.708;20.368;2023-03-24T07:52:40;2.40;83.70
14798;DHT22;7490;63.708;20.368;2023-03-24T07:55:08;2.50;84.30
14798;DHT22;7490;63.708;20.368;2023-03-24T07:57:36;2.60;84.60
14798;DHT22;7490;63.708;20.368;2023-03-24T08:00:06;2.80;84.60
14798;DHT22;7490;63.708;20.368;2023-03-24T08:02:47;2.90;84.30
14798;DHT22;7490;63.708;20.368;2023-03-24T08:05:12;2.90;83.70
14798;DHT22;7490;63.708;20.368;2023-03-24T08:07:51;2.90;84.00
14798;DHT22;7490;63.708;20.368;2023-03-24T08:10:29;3.00;84.20
14798;DHT22;7490;63.708;20.368;2023-03-24T08:12:56;3.10;84.30
14798;DHT22;7490;63.708;20.368;2023-03-24T08:15:22;3.20;84.00
14798;DHT22;7490;63.708;20.368;2023-03-24T08:17:49;3.20;84.40
14798;DHT22;7490;63.708;20.368;2023-03-24T08:20:15;3.40;85.10
14798;DHT22;7490;63.708;20.368;2023-03-24T08:22:43;3.60;85.40
14798;DHT22;7490;63.708;20.368;2023-03-24T08:25:11;3.90;85.20
14798;DHT22;7490;63.708;20.368;2023-03-24T08:27:38;4.10;85.30
14798;DHT22;7490;63.708;20.368;2023-03-24T08:30:06;4.30;85.10
14798;DHT22;7490;63.708;20.368;2023-03-24T08:32:33;4.50;84.70
14798;DHT22;7490;63.708;20.368;2023-03-24T08:34:59;4.70;84.90
14798;DHT22;7490;63.708;20.368;2023-03-24T08:37:24;4.90;84.20
14798;DHT22;7490;63.708;20.368;2023-03-24T08:39:51;4.90;83.90
14798;DHT22;7490;63.708;20.368;2023-03-24T08:42:17;5.00;83.60
14798;DHT22;7490;63.708;20.368;2023-03-24T08:44:43;5.00;83.50
14798;DHT22;7490;63.708;20.368;2023-03-24T08:47:09;5.00;83.70
14798;DHT22;7490;63.708;20.368;2023-03-24T08:49:35;5.10;83.80
14798;DHT22;7490;63.708;20.368;2023-03-24T08:52:00;5.10;83.40
14798;DHT22;7490;63.708;20.368;2023-03-24T08:54:26;5.10;83.10
14798;DHT22;7490;63.708;20.368;2023-03-24T08:56:52;5.00;83.70
14798;DHT22;7490;63.708;20.368;2023-03-24T08:59:17;5.00;84.10
14798;DHT22;7490;63.708;20.368;2023-03-24T09:01:43;5.00;83.50
14798;DHT22;7490;63.708;20.368;2023-03-24T09:04:09;4.90;83.60
14798;DHT22;7490;63.708;20.368;2023-03-24T09:06:34;5.00;83.50
14798;DHT22;7490;63.708;20.368;2023-03-24T09:09:01;5.00;83.80
14798;DHT22;7490;63.708;20.368;2023-03-24T09:11:26;5.00;83.80
14798;DHT22;7490;63.708;20.368;2023-03-24T09:13:52;5.00;83.80
14798;DHT22;7490;63.708;20.368;2023-03-24T09:16:18;5.00;83.60
14798;DHT22;7490;63.708;20.368;2023-03-24T09:18:44;4.90;83.20
14798;DHT22;7490;63.708;20.368;2023-03-24T09:21:11;4.90;83.40
14798;DHT22;7490;63.708;20.368;2023-03-24T09:23:38;4.80;83.20
14798;DHT22;7490;63.708;20.368;2023-03-24T09:26:04;4.80;83.50
14798;DHT22;7490;63.708;20.368;2023-03-24T09:28:31;4.70;84.00
14798;DHT22;7490;63.708;20.368;2023-03-24T09:30:59;4.80;84.70
14798;DHT22;7490;63.708;20.368;2023-03-24T09:33:25;4.90;85.60
14798;DHT22;7490;63.708;20.368;2023-03-24T09:35:59;5.20;86.00
14798;DHT22;7490;63.708;20.368;2023-03-24T09:38:25;5.60;85.40
14798;DHT22;7490;63.708;20.368;2023-03-24T09:40:57;5.90;85.30
14798;DHT22;7490;63.708;20.368;2023-03-24T09:43:57;6.00;84.60
14798;DHT22;7490;63.708;20.368;2023-03-24T09:48:56;6.40;84.30
14798;DHT22;7490;63.708;20.368;2023-03-24T09:51:39;6.50;84.00
14798;DHT22;7490;63.708;20.368;2023-03-24T09:56:35;6.50;83.40
14798;DHT22;7490;63.708;20.368;2023-03-24T09:59:51;6.40;83.10
14798;DHT22;7490;63.708;20.368;2023-03-24T10:01:51;6.40;83.60
14798;DHT22;7490;63.708;20.368;2023-03-24T10:04:21;6.40;83.20
14798;DHT22;7490;63.708;20.368;2023-03-24T10:06:53;6.30;83.10
14798;DHT22;7490;63.708;20.368;2023-03-24T10:09:33;6.30;83.60
14798;DHT22;7490;63.708;20.368;2023-03-24T10:29:01;5.10;83.00
14798;DHT22;7490;63.708;20.368;2023-03-24T10:31:31;5.00;84.30
14798;DHT22;7490;63.708;20.368;2023-03-24T10:33:58;5.00;84.60
14798;DHT22;7490;63.708;20.368;2023-03-24T10:36:25;5.00;85.30
14798;DHT22;7490;63.708;20.368;2023-03-24T10:38:52;5.10;85.30
14798;DHT22;7490;63.708;20.368;2023-03-24T10:43:46;5.10;84.90
14798;DHT22;7490;63.708;20.368;2023-03-24T10:46:22;5.00;84.30
14798;DHT22;7490;63.708;20.368;2023-03-24T10:51:36;4.90;85.30
14798;DHT22;7490;63.708;20.368;2023-03-24T10:54:13;5.10;86.10
14798;DHT22;7490;63.708;20.368;2023-03-24T10:56:42;5.20;85.60
14798;DHT22;7490;63.708;20.368;2023-03-24T10:59:29;5.40;86.10
14798;DHT22;7490;63.708;20.368;2023-03-24T11:02:21;5.60;85.90
14798;DHT22;7490;63.708;20.368;2023-03-24T11:07:21;5.80;85.20
14798;DHT22;7490;63.708;20.368;2023-03-24T11:12:28;5.80;84.40
14798;DHT22;7490;63.708;20.368;2023-03-24T11:17:42;5.70;84.40
14798;DHT22;7490;63.708;20.368;2023-03-24T11:20:35;5.90;85.90
14798;DHT22;7490;63.708;20.368;2023-03-24T11:23:19;6.20;85.90
14798;DHT22;7490;63.708;20.368;2023-03-24T11:25:52;6.60;86.50
14798;DHT22;7490;63.708;20.368;2023-03-24T11:28:22;6.90;85.70
14798;DHT22;7490;63.708;20.368;2023-03-24T11:30:51;7.10;85.60
14798;DHT22;7490;63.708;20.368;2023-03-24T11:35:50;7.40;84.30
14798;DHT22;7490;63.708;20.368;2023-03-24T11:38:18;7.40;83.50
14798;DHT22;7490;63.708;20.368;2023-03-24T11:40:58;7.40;84.10
14798;DHT22;7490;63.708;20.368;2023-03-24T11:43:26;7.50;84.30
14798;DHT22;7490;63.708;20.368;2023-03-24T11:46:09;7.70;84.70
14798;DHT22;7490;63.708;20.368;2023-03-24T11:48:45;7.90;83.80
14798;DHT22;7490;63.708;20.368;2023-03-24T11:51:33;8.10;84.40
14798;DHT22;7490;63.708;20.368;2023-03-24T11:54:02;8.30;82.90
14798;DHT22;7490;63.708;20.368;2023-03-24T11:56:36;7.80;81.20
14798;DHT22;7490;63.708;20.368;2023-03-24T12:01:38;7.30;82.00
14798;DHT22;7490;63.708;20.368;2023-03-24T12:13:11;7.30;82.60
14798;DHT22;7490;63.708;20.368;2023-03-24T12:23:57;6.80;81.70
14798;DHT22;7490;63.708;20.368;2023-03-24T12:26:26;6.60;82.20
14798;DHT22;7490;63.708;20.368;2023-03-24T12:37:16;6.10;84.70
14798;DHT22;7490;63.708;20.368;2023-03-24T12:39:50;6.20;83.70
14798;DHT22;7490;63.708;20.368;2023-03-24T12:42:19;6.10;83.00
14798;DHT22;7490;63.708;20.368;2023-03-24T12:56:14;5.90;83.80
14798;DHT22;7490;63.708;20.368;2023-03-24T12:59:03;5.90;83.70
14798;DHT22;7490;63.708;20.368;2023-03-24T13:01:51;5.90;83.70
14798;DHT22;7490;63.708;20.368;2023-03-24T13:04:32;5.80;83.30
14798;DHT22;7490;63.708;20.368;2023-03-24T13:07:06;5.80;83.40
14798;DHT22;7490;63.708;20.368;2023-03-24T13:09:53;5.70;83.80
14798;DHT22;7490;63.708;20.368;2023-03-24T13:12:31;5.70;83.80
14798;DHT22;7490;63.708;20.368;2023-03-24T13:15:15;5.70;84.10
14798;DHT22;7490;63.708;20.368;2023-03-24T13:20:21;5.90;84.10
14798;DHT22;7490;63.708;20.368;2023-03-24T13:22:48;6.00;84.40
14798;DHT22;7490;63.708;20.368;2023-03-24T13:27:53;6.10;83.60
14798;DHT22;7490;63.708;20.368;2023-03-24T13:33:11;6.00;83.20
14798;DHT22;7490;63.708;20.368;2023-03-24T13:38:50;5.90;82.40
14798;DHT22;7490;63.708;20.368;2023-03-24T13:41:22;5.70;83.00
14798;DHT22;7490;63.708;20.368;2023-03-24T13:46:24;5.50;83.40
14798;DHT22;7490;63.708;20.368;2023-03-24T13:48:53;5.50;82.80
14798;DHT22;7490;63.708;20.368;2023-03-24T13:51:33;5.40;82.10
14798;DHT22;7490;63.708;20.368;2023-03-24T13:54:14;5.30;82.10
14798;DHT22;7490;63.708;20.368;2023-03-24T13:57:07;5.20;81.70
14798;DHT22;7490;63.708;20.368;2023-03-24T14:00:26;5.10;81.70
14798;DHT22;7490;63.708;20.368;2023-03-24T14:02:41;5.00;81.90
14798;DHT22;7490;63.708;20.368;2023-03-24T14:07:49;5.00;82.90
14798;DHT22;7490;63.708;20.368;2023-03-24T14:18:13;5.20;81.50
14798;DHT22;7490;63.708;20.368;2023-03-24T14:20:57;5.10;81.00
14798;DHT22;7490;63.708;20.368;2023-03-24T14:23:43;5.00;80.90
14798;DHT22;7490;63.708;20.368;2023-03-24T14:26:27;4.90;80.70
14798;DHT22;7490;63.708;20.368;2023-03-24T14:28:57;4.80;80.70
14798;DHT22;7490;63.708;20.368;2023-03-24T14:31:28;4.70;80.60
14798;DHT22;7490;63.708;20.368;2023-03-24T14:36:43;4.50;80.30
14798;DHT22;7490;63.708;20.368;2023-03-24T14:39:35;4.40;80.20
14798;DHT22;7490;63.708;20.368;2023-03-24T14:44:54;4.30;80.70
14798;DHT22;7490;63.708;20.368;2023-03-24T14:47:31;4.30;80.50
14798;DHT22;7490;63.708;20.368;2023-03-24T14:50:00;4.30;79.60
14798;DHT22;7490;63.708;20.368;2023-03-24T14:52:36;4.20;79.60
14798;DHT22;7490;63.708;20.368;2023-03-24T14:55:06;4.20;79.60
14798;DHT22;7490;63.708;20.368;2023-03-24T14:57:43;4.20;79.60
14798;DHT22;7490;63.708;20.368;2023-03-24T15:00:19;4.10;79.20
14798;DHT22;7490;63.708;20.368;2023-03-24T15:03:09;4.10;79.30
14798;DHT22;7490;63.708;20.368;2023-03-24T15:05:35;4.10;79.40
14798;DHT22;7490;63.708;20.368;2023-03-24T15:08:17;4.10;79.50
14798;DHT22;7490;63.708;20.368;2023-03-24T15:15:56;3.90;77.80
14798;DHT22;7490;63.708;20.368;2023-03-24T15:18:22;3.80;78.00
14798;DHT22;7490;63.708;20.368;2023-03-24T15:20:49;3.80;77.90
14798;DHT22;7490;63.708;20.368;2023-03-24T15:23:26;3.60;77.70
14798;DHT22;7490;63.708;20.368;2023-03-24T15:25:53;3.50;78.00
14798;DHT22;7490;63.708;20.368;2023-03-24T15:28:28;3.50;78.20
14798;DHT22;7490;63.708;20.368;2023-03-24T15:30:55;3.40;77.70
14798;DHT22;7490;63.708;20.368;2023-03-24T15:33:24;3.40;77.60
14798;DHT22;7490;63.708;20.368;2023-03-24T15:35:55;3.40;77.50
14798;DHT22;7490;63.708;20.368;2023-03-24T15:38:29;3.20;77.20
14798;DHT22;7490;63.708;20.368;2023-03-24T15:41:06;3.10;77.30
14798;DHT22;7490;63.708;20.368;2023-03-24T15:43:32;3.10;77.30
14798;DHT22;7490;63.708;20.368;2023-03-24T15:45:58;3.00;77.20
14798;DHT22;7490;63.708;20.368;2023-03-24T15:48:33;2.90;77.10
14798;DHT22;7490;63.708;20.368;2023-03-24T15:51:05;2.90;77.20
14798;DHT22;7490;63.708;20.368;2023-03-24T15:58:53;2.70;77.30
14798;DHT22;7490;63.708;20.368;2023-03-24T16:01:23;2.60;77.30
14798;DHT22;7490;63.708;20.368;2023-03-24T16:03:52;2.70;77.30
14798;DHT22;7490;63.708;20.368;2023-03-24T16:06:31;2.60;77.40
14798;DHT22;7490;63.708;20.368;2023-03-24T16:09:03;2.50;77.40
14798;DHT22;7490;63.708;20.368;2023-03-24T16:11:29;2.40;77.00
14798;DHT22;7490;63.708;20.368;2023-03-24T16:13:55;2.30;76.90
14798;DHT22;7490;63.708;20.368;2023-03-24T16:16:27;2.20;77.00
14798;DHT22;7490;63.708;20.368;2023-03-24T16:18:53;2.10;77.20
14798;DHT22;7490;63.708;20.368;2023-03-24T16:21:26;2.00;77.30
14798;DHT22;7490;63.708;20.368;2023-03-24T16:23:54;2.00;77.30
14798;DHT22;7490;63.708;20.368;2023-03-24T16:26:26;1.90;77.30
14798;DHT22;7490;63.708;20.368;2023-03-24T16:28:53;1.80;77.20
14798;DHT22;7490;63.708;20.368;2023-03-24T16:31:26;1.70;77.20
14798;DHT22;7490;63.708;20.368;2023-03-24T16:33:55;1.50;77.20
14798;DHT22;7490;63.708;20.368;2023-03-24T16:36:21;1.40;77.40
14798;DHT22;7490;63.708;20.368;2023-03-24T16:38:48;1.40;77.60
14798;DHT22;7490;63.708;20.368;2023-03-24T16:41:14;1.30;77.60
14798;DHT22;7490;63.708;20.368;2023-03-24T16:43:41;1.20;77.60
14798;DHT22;7490;63.708;20.368;2023-03-24T16:46:14;1.20;77.50
14798;DHT22;7490;63.708;20.368;2023-03-24T16:48:41;1.10;77.50
14798;DHT22;7490;63.708;20.368;2023-03-24T16:51:15;1.00;77.60
14798;DHT22;7490;63.708;20.368;2023-03-24T16:53:41;1.00;77.80
14798;DHT22;7490;63.708;20.368;2023-03-24T16:56:08;0.90;77.80
14798;DHT22;7490;63.708;20.368;2023-03-24T16:58:35;0.90;77.90
14798;DHT22;7490;63.708;20.368;2023-03-24T17:01:01;0.80;77.80
14798;DHT22;7490;63.708;20.368;2023-03-24T17:03:26;0.70;78.00
14798;DHT22;7490;63.708;20.368;2023-03-24T17:05:56;0.60;78.20
14798;DHT22;7490;63.708;20.368;2023-03-24T17:08:22;0.60;78.30
14798;DHT22;7490;63.708;20.368;2023-03-24T17:10:50;0.60;78.40
14798;DHT22;7490;63.708;20.368;2023-03-24T17:13:19;0.60;78.50
14798;DHT22;7490;63.708;20.368;2023-03-24T17:15:46;0.50;78.40
14798;DHT22;7490;63.708;20.368;2023-03-24T17:18:11;0.50;78.40
14798;DHT22;7490;63.708;20.368;2023-03-24T17:20:37;0.50;78.40
14798;DHT22;7490;63.708;20.368;2023-03-24T17:23:08;0.40;78.30
14798;DHT22;7490;63.708;20.368;2023-03-24T17:25:34;0.30;78.40
14798;DHT22;7490;63.708;20.368;2023-03-24T17:28:00;0.30;78.50
14798;DHT22;7490;63.708;20.368;2023-03-24T17:30:27;0.30;78.60
14798;DHT22;7490;63.708;20.368;2023-03-24T17:32:53;0.20;78.60
14798;DHT22;7490;63.708;20.368;2023-03-24T17:35:21;0.10;78.80
14798;DHT22;7490;63.708;20.368;2023-03-24T17:37:48;0.10;78.90
14798;DHT22;7490;63.708;20.368;2023-03-24T17:40:16;0.00;79.00
14798;DHT22;7490;63.708;20.368;2023-03-24T17:42:43;0.00;79.00
14798;DHT22;7490;63.708;20.368;2023-03-24T17:45:12;0.00;79.00
14798;DHT22;7490;63.708;20.368;2023-03-24T17:47:38;0.00;79.00
14798;DHT22;7490;63.708;20.368;2023-03-24T17:50:05;-0.10;79.00
14798;DHT22;7490;63.708;20.368;2023-03-24T17:52:39;-0.10;79.00
14798;DHT22;7490;63.708;20.368;2023-03-24T17:55:05;-0.10;79.10
14798;DHT22;7490;63.708;20.368;2023-03-24T17:57:32;-0.10;79.20
14798;DHT22;7490;63.708;20.368;2023-03-24T17:59:58;-0.10;79.20
14798;DHT22;7490;63.708;20.368;2023-03-24T18:02:24;-0.20;79.20
14798;DHT22;7490;63.708;20.368;2023-03-24T18:04:50;-0.20;79.30
14798;DHT22;7490;63.708;20.368;2023-03-24T18:07:16;-0.20;79.40
14798;DHT22;7490;63.708;20.368;2023-03-24T18:09:42;-0.10;79.40
14798;DHT22;7490;63.708;20.368;2023-03-24T18:12:07;-0.30;79.40
14798;DHT22;7490;63.708;20.368;2023-03-24T18:14:33;-0.30;79.40
14798;DHT22;7490;63.708;20.368;2023-03-24T18:16:59;-0.30;79.50
14798;DHT22;7490;63.708;20.368;2023-03-24T18:19:24;-0.30;79.60
14798;DHT22;7490;63.708;20.368;2023-03-24T18:21:50;-0.30;79.60
14798;DHT22;7490;63.708;20.368;2023-03-24T18:24:16;-0.30;79.60
14798;DHT22;7490;63.708;20.368;2023-03-24T18:26:42;-0.30;79.50
14798;DHT22;7490;63.708;20.368;2023-03-24T18:29:07;-0.30;79.50
14798;DHT22;7490;63.708;20.368;2023-03-24T18:31:34;-0.10;79.50
14798;DHT22;7490;63.708;20.368;2023-03-24T18:34:00;-0.40;79.30
14798;DHT22;7490;63.708;20.368;2023-03-24T18:36:25;-0.40;79.20
14798;DHT22;7490;63.708;20.368;2023-03-24T18:39:04;-0.40;79.30
14798;DHT22;7490;63.708;20.368;2023-03-24T18:41:30;-0.50;79.30
14798;DHT22;7490;63.708;20.368;2023-03-24T18:43:57;-0.40;79.30
14798;DHT22;7490;63.708;20.368;2023-03-24T18:46:25;-0.30;79.40
14798;DHT22;7490;63.708;20.368;2023-03-24T18:48:50;-0.50;79.30